Time;durP1;ratioP1;P1;durP2;ratioP2;P2;SDS_P1;SDS_P2;PMS_P1;PMS_P2;Temp;Humidity;BMP_temperature;BMP_pressure;BME280_temperature;BME280_humidity;BME280_pressure;Samples;Min_cycle;Max_cycle;Signal;HPM_P1;HPM_P2
2022/01/15 00:00:27;;;;;;;144.37;38.23;;;-1.70;99.90;;;;;;5096993;28;20289;-74
2022/01/15 00:02:54;;;;;;;107.23;34.33;;;-1.70;99.90;;;;;;5096572;28;20193;-75
2022/01/15 00:05:23;;;;;;;105.97;35.80;;;-1.70;99.90;;;;;;5096377;28;20196;-75
2022/01/15 00:07:50;;;;;;;123.47;35.37;;;-1.70;99.90;;;;;;5096213;28;20220;-75
2022/01/15 00:10:20;;;;;;;97.57;33.77;;;-1.70;99.90;;;;;;5096338;28;20228;-75
2022/01/15 00:12:47;;;;;;;76.30;32.50;;;-1.80;99.90;;;;;;5096157;28;20300;-75
2022/01/15 00:15:20;;;;;;;93.27;33.00;;;-1.70;99.90;;;;;;5096010;28;20199;-75
2022/01/15 00:17:50;;;;;;;84.00;32.87;;;-1.70;99.90;;;;;;5095804;28;20197;-75
2022/01/15 00:20:20;;;;;;;84.07;30.77;;;-1.70;99.90;;;;;;5095914;28;20572;-74
2022/01/15 00:22:49;;;;;;;83.77;31.60;;;-1.60;99.90;;;;;;5095870;28;20334;-75
2022/01/15 00:25:16;;;;;;;77.63;30.60;;;-1.60;99.90;;;;;;5100757;28;20196;-75
2022/01/15 00:27:43;;;;;;;82.77;29.93;;;-1.60;99.90;;;;;;5096955;28;20249;-75
2022/01/15 00:30:12;;;;;;;88.90;32.30;;;-1.60;99.90;;;;;;5095288;28;20206;-75
2022/01/15 00:32:39;;;;;;;65.83;28.97;;;-1.60;99.90;;;;;;5095768;28;20193;-75
2022/01/15 00:35:08;;;;;;;73.47;29.67;;;-1.50;99.90;;;;;;5095594;28;20196;-75
2022/01/15 00:37:35;;;;;;;107.10;30.17;;;-1.50;99.90;;;;;;5094997;28;20192;-74
2022/01/15 00:40:06;;;;;;;97.47;31.13;;;-1.60;99.90;;;;;;5095122;28;20228;-75
2022/01/15 00:42:35;;;;;;;90.20;31.70;;;-1.60;99.90;;;;;;5095201;28;20204;-75
2022/01/15 00:45:03;;;;;;;113.63;30.30;;;-1.60;99.90;;;;;;5095147;28;20231;-75
2022/01/15 00:47:31;;;;;;;92.83;30.20;;;-1.60;99.90;;;;;;5094974;28;20643;-74
2022/01/15 00:49:58;;;;;;;105.40;30.90;;;-1.50;99.90;;;;;;5095127;28;20224;-74
2022/01/15 00:52:25;;;;;;;70.33;27.13;;;-1.50;99.90;;;;;;5095091;28;20288;-75
2022/01/15 00:54:52;;;;;;;106.13;29.80;;;-1.60;99.90;;;;;;5094957;28;20200;-75
2022/01/15 00:57:20;;;;;;;137.83;30.37;;;-1.50;99.90;;;;;;5094780;28;20337;-75
2022/01/15 00:59:47;;;;;;;86.03;28.73;;;-1.60;99.90;;;;;;5094731;28;20647;-75
2022/01/15 01:02:14;;;;;;;110.63;29.30;;;-1.50;99.90;;;;;;5094887;28;20228;-75
2022/01/15 01:04:41;;;;;;;81.77;29.20;;;-1.50;99.90;;;;;;5094810;28;20200;-75
2022/01/15 01:07:08;;;;;;;107.67;29.30;;;-1.60;99.90;;;;;;5095023;28;20197;-75
2022/01/15 01:09:50;;;;;;;120.10;30.33;;;-1.50;99.90;;;;;;5094509;28;20280;-75
2022/01/15 01:12:31;;;;;;;99.77;29.53;;;-1.50;99.90;;;;;;5095011;28;20204;-75
2022/01/15 01:20:39;;;;;;;92.17;29.17;;;-1.50;99.90;;;;;;5100049;28;20238;-75
2022/01/15 01:23:06;;;;;;;144.30;31.03;;;-1.50;99.90;;;;;;5095399;28;20219;-74
2022/01/15 01:25:37;;;;;;;257.70;39.37;;;-1.50;99.90;;;;;;5094611;28;20197;-74
2022/01/15 01:28:09;;;;;;;104.17;31.23;;;-1.50;99.90;;;;;;5094401;28;20204;-74
2022/01/15 01:30:43;;;;;;;129.40;30.13;;;-1.50;99.90;;;;;;5094134;28;20674;-74
2022/01/15 01:33:29;;;;;;;84.63;29.00;;;-1.50;99.90;;;;;;5094436;28;20204;-75
2022/01/15 01:36:07;;;;;;;78.40;29.00;;;-1.50;99.90;;;;;;5094389;28;20291;-75
2022/01/15 01:38:39;;;;;;;99.80;29.23;;;-1.40;99.90;;;;;;5094292;28;20200;-75
2022/01/15 01:41:07;;;;;;;103.67;30.53;;;-1.40;99.90;;;;;;5094344;28;20228;-75
2022/01/15 01:43:47;;;;;;;110.10;32.00;;;-1.40;99.90;;;;;;5094068;28;20196;-75
2022/01/15 01:46:35;;;;;;;91.90;29.10;;;-1.40;99.90;;;;;;5093962;28;20192;-75
2022/01/15 01:49:03;;;;;;;62.33;28.57;;;-1.40;99.90;;;;;;5093982;28;20196;-75
2022/01/15 01:51:33;;;;;;;90.87;28.80;;;-1.40;99.90;;;;;;5093791;28;20220;-75
2022/01/15 01:54:02;;;;;;;79.17;27.60;;;-1.30;99.90;;;;;;5094154;28;20287;-75
2022/01/15 01:56:29;;;;;;;80.40;28.17;;;-1.30;99.90;;;;;;5094683;28;20200;-75
2022/01/15 01:58:56;;;;;;;89.10;28.30;;;-1.30;99.90;;;;;;5093885;28;20196;-75
2022/01/15 02:01:25;;;;;;;105.10;29.27;;;-1.20;99.90;;;;;;5095373;28;20238;-75
2022/01/15 02:03:52;;;;;;;86.10;29.50;;;-1.20;99.90;;;;;;5101750;28;20656;-75
2022/01/15 02:06:20;;;;;;;65.77;25.87;;;-1.20;99.90;;;;;;5102360;28;20222;-75
2022/01/15 02:08:47;;;;;;;57.90;25.47;;;-1.20;99.90;;;;;;5103049;28;20218;-76
2022/01/15 02:11:14;;;;;;;58.60;24.77;;;-1.20;99.90;;;;;;5102396;28;20236;-75
2022/01/15 02:13:43;;;;;;;76.13;27.30;;;-1.20;99.90;;;;;;5103028;28;20211;-75
2022/01/15 02:16:11;;;;;;;83.70;27.23;;;-1.10;99.90;;;;;;5102593;28;20684;-75
2022/01/15 02:18:39;;;;;;;72.23;24.83;;;-1.00;99.90;;;;;;5095393;28;20192;-75
2022/01/15 02:23:54;;;;;;;89.67;25.00;;;-1.00;99.90;;;;;;5094313;28;20202;-75
2022/01/15 02:26:24;;;;;;;61.33;25.27;;;-1.00;99.90;;;;;;5093801;28;20249;-75
2022/01/15 02:28:57;;;;;;;64.00;26.93;;;-1.00;99.90;;;;;;5093867;28;20283;-75
2022/01/15 02:31:25;;;;;;;61.00;25.27;;;-1.00;99.90;;;;;;5093957;28;20563;-75
2022/01/15 02:33:54;;;;;;;61.20;25.40;;;-0.90;99.90;;;;;;5093769;28;20200;-75
2022/01/15 02:36:24;;;;;;;69.20;28.37;;;-0.90;99.90;;;;;;5093721;28;20245;-75
2022/01/15 02:38:51;;;;;;;72.50;27.33;;;-0.90;99.90;;;;;;5093456;28;20204;-75
2022/01/15 02:41:26;;;;;;;71.40;28.23;;;-0.90;99.90;;;;;;5092957;28;20741;-75
2022/01/15 02:43:53;;;;;;;69.13;28.60;;;-0.80;99.90;;;;;;5093407;28;20196;-75
2022/01/15 02:46:22;;;;;;;77.57;29.10;;;-0.90;99.90;;;;;;5093312;28;20228;-75
2022/01/15 02:48:51;;;;;;;70.27;27.60;;;-0.80;99.90;;;;;;5093117;28;20551;-75
2022/01/15 02:51:19;;;;;;;61.47;24.63;;;-0.90;99.90;;;;;;5093631;28;20287;-75
2022/01/15 02:53:54;;;;;;;77.83;26.83;;;-0.80;99.90;;;;;;5093208;28;20286;-75
2022/01/15 02:56:22;;;;;;;72.10;26.10;;;-0.80;99.90;;;;;;5093346;28;20200;-75
2022/01/15 02:58:48;;;;;;;75.67;26.23;;;-0.70;99.90;;;;;;5093220;28;20238;-75
2022/01/15 03:01:15;;;;;;;70.90;25.23;;;-0.80;99.90;;;;;;5092975;28;20246;-75
2022/01/15 03:03:42;;;;;;;74.60;24.23;;;-0.80;99.90;;;;;;5092921;28;20663;-75
2022/01/15 03:06:10;;;;;;;72.60;23.33;;;-0.70;99.90;;;;;;5092902;28;20196;-75
2022/01/15 03:08:37;;;;;;;67.57;24.43;;;-0.70;99.90;;;;;;5093056;28;20200;-75
2022/01/15 03:11:06;;;;;;;63.93;22.10;;;-0.70;99.90;;;;;;5101677;28;20232;-75
2022/01/15 03:13:33;;;;;;;65.70;22.50;;;-0.70;99.90;;;;;;5097080;28;20652;-75
2022/01/15 03:16:00;;;;;;;73.23;23.10;;;-0.60;99.90;;;;;;5096717;28;20659;-75
2022/01/15 03:18:27;;;;;;;70.87;23.27;;;-0.60;99.90;;;;;;5096768;28;20192;-75
2022/01/15 03:20:53;;;;;;;70.60;24.30;;;-0.60;99.90;;;;;;5096319;28;20650;-75
2022/01/15 03:23:20;;;;;;;74.93;24.00;;;-0.60;99.90;;;;;;5096692;28;20721;-75
2022/01/15 03:25:47;;;;;;;76.27;23.13;;;-0.60;99.90;;;;;;5096641;28;20197;-75
2022/01/15 03:28:15;;;;;;;76.57;23.07;;;-0.50;99.90;;;;;;5096564;28;20253;-75
2022/01/15 03:30:41;;;;;;;77.03;22.30;;;-0.50;99.90;;;;;;5096467;28;20253;-75
2022/01/15 03:33:08;;;;;;;76.37;22.70;;;-0.50;99.90;;;;;;5096375;28;20192;-75
2022/01/15 03:35:36;;;;;;;60.97;21.47;;;-0.50;99.90;;;;;;5096336;28;20196;-75
2022/01/15 03:38:04;;;;;;;72.07;21.80;;;-0.50;99.90;;;;;;5096442;28;20238;-75
2022/01/15 03:40:31;;;;;;;75.93;22.17;;;-0.50;99.90;;;;;;5096434;28;20266;-75
2022/01/15 03:42:58;;;;;;;57.50;23.03;;;-0.50;99.90;;;;;;5096570;28;20223;-75
2022/01/15 03:45:26;;;;;;;76.13;24.10;;;-0.50;99.90;;;;;;5097105;28;20253;-75
2022/01/15 03:47:53;;;;;;;74.63;22.40;;;-0.50;99.90;;;;;;5096478;28;20197;-75
2022/01/15 03:50:20;;;;;;;66.43;23.03;;;-0.50;99.90;;;;;;5096539;28;20196;-75
2022/01/15 03:52:47;;;;;;;74.83;23.40;;;-0.50;99.90;;;;;;5096097;28;20241;-74
2022/01/15 03:55:15;;;;;;;65.73;22.63;;;-0.50;99.90;;;;;;5095965;28;20245;-75
2022/01/15 03:57:42;;;;;;;76.67;22.20;;;-0.50;99.90;;;;;;5095790;28;20196;-75
2022/01/15 04:00:12;;;;;;;67.10;23.33;;;-0.50;99.90;;;;;;5095822;28;20193;-75
2022/01/15 04:02:42;;;;;;;83.27;24.70;;;-0.40;99.90;;;;;;5095597;28;20227;-75
2022/01/15 04:05:10;;;;;;;78.87;23.70;;;-0.40;99.90;;;;;;5101020;28;20264;-75
2022/01/15 04:07:37;;;;;;;77.30;24.47;;;-0.40;99.90;;;;;;5096146;28;20200;-75
2022/01/15 04:10:04;;;;;;;74.40;24.00;;;-0.40;99.90;;;;;;5095535;28;20255;-75
2022/01/15 04:12:31;;;;;;;83.93;24.90;;;-0.40;99.90;;;;;;5095465;28;20222;-75
2022/01/15 04:14:58;;;;;;;76.37;22.13;;;-0.40;99.90;;;;;;5095721;28;20253;-75
2022/01/15 04:17:25;;;;;;;67.50;21.50;;;-0.40;99.90;;;;;;5095307;28;20597;-75
2022/01/15 04:19:53;;;;;;;84.40;22.80;;;-0.40;99.90;;;;;;5095304;28;20200;-75
2022/01/15 04:22:20;;;;;;;83.73;23.93;;;-0.40;99.90;;;;;;5095275;28;20251;-75
2022/01/15 04:24:47;;;;;;;78.53;22.83;;;-0.30;99.90;;;;;;5095434;28;20241;-74
2022/01/15 04:27:14;;;;;;;70.40;24.03;;;-0.40;99.90;;;;;;5095199;28;20533;-75
2022/01/15 04:29:40;;;;;;;57.83;21.30;;;-0.40;99.90;;;;;;5095188;28;20192;-75
2022/01/15 04:32:08;;;;;;;70.10;23.70;;;-0.40;99.90;;;;;;5095435;28;20263;-75
2022/01/15 04:34:35;;;;;;;60.23;21.67;;;-0.40;99.90;;;;;;5095205;28;20196;-75
2022/01/15 04:37:08;;;;;;;72.83;23.57;;;-0.40;99.90;;;;;;5095100;28;20209;-75
2022/01/15 04:39:35;;;;;;;73.70;24.93;;;-0.40;99.90;;;;;;5095181;28;20208;-75
2022/01/15 04:42:02;;;;;;;68.23;23.43;;;-0.40;99.90;;;;;;5095053;28;20277;-75
2022/01/15 04:44:28;;;;;;;60.87;21.33;;;-0.40;99.90;;;;;;5094809;28;20222;-75
2022/01/15 04:46:55;;;;;;;58.43;22.13;;;-0.40;99.90;;;;;;5095136;28;20245;-74
2022/01/15 04:49:22;;;;;;;72.77;24.07;;;-0.40;99.90;;;;;;5094824;28;20652;-75
2022/01/15 04:51:48;;;;;;;72.30;22.73;;;-0.40;99.90;;;;;;5094724;28;20604;-75
2022/01/15 04:54:16;;;;;;;57.17;21.93;;;-0.30;99.90;;;;;;5094734;28;20203;-75
2022/01/15 04:56:43;;;;;;;59.77;22.20;;;-0.30;99.90;;;;;;5094675;28;20195;-75
2022/01/15 04:59:10;;;;;;;58.73;21.97;;;-0.40;99.90;;;;;;5095921;28;20246;-75
2022/01/15 05:01:37;;;;;;;68.07;23.13;;;-0.40;99.90;;;;;;5098299;28;20247;-75
2022/01/15 05:04:05;;;;;;;62.90;22.23;;;-0.30;99.90;;;;;;5094935;28;20228;-74
2022/01/15 05:06:31;;;;;;;61.90;22.20;;;-0.40;99.90;;;;;;5094788;28;20200;-75
2022/01/15 05:09:04;;;;;;;60.20;22.37;;;-0.30;99.90;;;;;;5094694;28;20200;-75
2022/01/15 05:11:45;;;;;;;62.47;22.37;;;-0.30;99.90;;;;;;5074442;28;20676;-75
2022/01/15 05:14:13;;;;;;;55.77;22.53;;;-0.30;99.90;;;;;;5074338;28;20657;-75
2022/01/15 05:16:40;;;;;;;59.73;22.67;;;-0.30;99.90;;;;;;5074406;28;20700;-75
2022/01/15 05:19:07;;;;;;;61.83;23.10;;;-0.30;99.90;;;;;;5074225;28;20602;-75
2022/01/15 05:21:34;;;;;;;66.57;23.03;;;-0.30;99.90;;;;;;5074189;28;20250;-75
2022/01/15 05:24:01;;;;;;;59.03;21.83;;;-0.30;99.90;;;;;;5074006;28;20201;-75
2022/01/15 05:26:28;;;;;;;60.17;22.23;;;-0.20;99.90;;;;;;5074578;28;20203;-75
2022/01/15 05:28:56;;;;;;;61.23;22.43;;;-0.20;99.90;;;;;;5074064;28;20193;-75
2022/01/15 05:31:24;;;;;;;52.00;22.00;;;-0.20;99.90;;;;;;5073730;28;20601;-75
2022/01/15 05:33:51;;;;;;;55.40;21.70;;;-0.20;99.90;;;;;;5073633;28;20204;-75
2022/01/15 05:36:18;;;;;;;55.87;22.63;;;-0.20;99.90;;;;;;5073706;28;20212;-75
2022/01/15 05:38:45;;;;;;;58.60;22.10;;;-0.20;99.90;;;;;;5074036;28;20212;-74
2022/01/15 05:41:12;;;;;;;64.13;23.53;;;-0.20;99.90;;;;;;5074169;28;20197;-75
2022/01/15 05:43:39;;;;;;;57.67;21.63;;;-0.20;99.90;;;;;;5073948;28;20228;-74
2022/01/15 05:46:07;;;;;;;66.60;23.10;;;-0.20;99.90;;;;;;5074074;28;20193;-74
2022/01/15 05:48:33;;;;;;;61.30;22.23;;;-0.10;99.90;;;;;;5074559;28;20733;-75
2022/01/15 05:51:00;;;;;;;57.50;21.77;;;-0.10;99.90;;;;;;5075863;28;20197;-75
2022/01/15 05:53:29;;;;;;;58.80;22.77;;;-0.20;99.90;;;;;;5079730;28;20259;-75
2022/01/15 05:55:56;;;;;;;58.83;20.60;;;-0.10;99.90;;;;;;5080733;28;20231;-74
2022/01/15 05:58:22;;;;;;;68.10;23.27;;;-0.10;99.90;;;;;;5080295;28;20201;-74
2022/01/15 06:00:50;;;;;;;70.70;23.80;;;-0.20;99.90;;;;;;5077633;28;20193;-74
2022/01/15 06:03:18;;;;;;;68.50;22.83;;;-0.20;99.90;;;;;;5077206;28;20216;-74
2022/01/15 06:05:44;;;;;;;65.23;24.37;;;-0.10;99.90;;;;;;5077026;28;20205;-74
2022/01/15 06:08:11;;;;;;;62.87;23.40;;;-0.10;99.90;;;;;;5076135;28;20587;-74
2022/01/15 06:10:40;;;;;;;68.97;24.37;;;-0.10;99.90;;;;;;5087905;28;20220;-74
2022/01/15 06:13:07;;;;;;;66.97;23.10;;;-0.10;99.90;;;;;;5094177;28;20205;-74
2022/01/15 06:15:33;;;;;;;62.23;22.70;;;-0.10;99.90;;;;;;5095919;28;20226;-74
2022/01/15 06:18:00;;;;;;;65.90;23.07;;;-0.10;99.90;;;;;;5095662;28;20197;-74
2022/01/15 06:20:28;;;;;;;70.37;24.93;;;-0.10;99.90;;;;;;5095147;28;20201;-74
2022/01/15 06:22:54;;;;;;;71.57;24.73;;;-0.10;99.90;;;;;;5095593;28;20277;-74
2022/01/15 06:25:21;;;;;;;62.57;23.43;;;-0.10;99.90;;;;;;5095098;28;20246;-74
2022/01/15 06:27:48;;;;;;;71.17;24.97;;;-0.10;99.90;;;;;;5095354;28;20222;-73
2022/01/15 06:30:15;;;;;;;74.37;26.13;;;-0.10;99.90;;;;;;5094681;28;20203;-74
2022/01/15 06:32:41;;;;;;;78.50;25.40;;;-0.10;99.90;;;;;;5095284;28;20192;-74
2022/01/15 06:35:11;;;;;;;74.30;24.93;;;-0.10;99.90;;;;;;5096335;28;20200;-74
2022/01/15 06:37:39;;;;;;;77.13;25.37;;;-0.10;99.90;;;;;;5096853;28;20224;-74
2022/01/15 06:40:07;;;;;;;66.57;24.30;;;-0.10;99.90;;;;;;5095464;28;20253;-74
2022/01/15 06:42:34;;;;;;;74.03;25.00;;;0.00;99.90;;;;;;5094568;28;20216;-74
2022/01/15 06:45:01;;;;;;;71.97;25.80;;;-0.10;99.90;;;;;;5098388;28;20196;-74
2022/01/15 06:47:28;;;;;;;87.10;25.77;;;0.00;99.90;;;;;;5098841;28;20196;-74
2022/01/15 06:49:55;;;;;;;79.80;26.33;;;-0.10;99.90;;;;;;5101100;28;20200;-74
2022/01/15 06:52:24;;;;;;;90.90;27.83;;;-0.10;99.90;;;;;;5101240;28;20726;-74
2022/01/15 06:54:52;;;;;;;84.67;27.53;;;-0.10;99.90;;;;;;5098001;28;20287;-75
2022/01/15 06:57:18;;;;;;;90.33;29.20;;;0.00;99.90;;;;;;5098011;28;20196;-74
2022/01/15 06:59:45;;;;;;;73.63;26.70;;;-0.10;99.90;;;;;;5097630;28;20201;-74
2022/01/15 07:02:12;;;;;;;89.60;27.40;;;0.00;99.90;;;;;;5098268;28;20624;-75
2022/01/15 07:04:39;;;;;;;86.30;29.37;;;0.00;99.90;;;;;;5099370;28;20201;-74
2022/01/15 07:07:05;;;;;;;83.80;27.80;;;0.00;99.90;;;;;;5099058;28;20618;-74
2022/01/15 07:09:32;;;;;;;74.90;26.70;;;0.00;99.90;;;;;;5100199;28;20278;-74
2022/01/15 07:12:00;;;;;;;73.73;27.10;;;0.10;99.90;;;;;;5100149;28;20196;-75
2022/01/15 07:14:27;;;;;;;78.13;27.57;;;0.10;99.90;;;;;;5100980;28;20204;-73
2022/01/15 07:16:54;;;;;;;83.10;27.67;;;0.10;99.90;;;;;;5100341;28;20197;-75
2022/01/15 07:19:20;;;;;;;81.37;27.77;;;0.10;99.90;;;;;;5101151;28;20249;-75
2022/01/15 07:21:47;;;;;;;84.03;27.53;;;0.10;99.90;;;;;;5100765;28;20196;-75
2022/01/15 07:24:14;;;;;;;86.73;28.97;;;0.20;99.90;;;;;;5101795;28;20232;-73
2022/01/15 07:26:41;;;;;;;90.00;30.17;;;0.10;99.90;;;;;;5100055;28;20200;-74
2022/01/15 07:29:14;;;;;;;84.77;29.20;;;0.20;99.90;;;;;;5102902;28;20192;-75
2022/01/15 07:31:42;;;;;;;94.73;31.53;;;0.20;99.90;;;;;;5104869;28;20196;-75
2022/01/15 07:34:09;;;;;;;96.87;32.23;;;0.20;99.90;;;;;;5104944;28;20203;-73
2022/01/15 07:36:36;;;;;;;79.13;29.67;;;0.20;99.90;;;;;;5102107;28;20222;-75
2022/01/15 07:39:03;;;;;;;81.03;29.27;;;0.20;99.90;;;;;;5104900;28;20199;-75
2022/01/15 07:41:30;;;;;;;92.17;31.80;;;0.20;99.90;;;;;;5104285;28;20713;-75
2022/01/15 07:43:56;;;;;;;84.77;29.60;;;0.20;99.90;;;;;;5105408;28;20286;-74
2022/01/15 07:46:24;;;;;;;90.07;30.10;;;0.30;99.90;;;;;;5105535;28;20204;-74
2022/01/15 07:48:51;;;;;;;86.13;26.87;;;0.30;99.90;;;;;;5107426;28;20732;-74
2022/01/15 07:51:18;;;;;;;90.60;30.03;;;0.30;99.90;;;;;;5104336;28;20204;-74
2022/01/15 07:53:45;;;;;;;85.67;29.23;;;0.40;99.90;;;;;;5102786;28;20204;-74
2022/01/15 07:56:12;;;;;;;84.43;30.47;;;0.40;99.90;;;;;;5102202;28;20199;-73
2022/01/15 07:58:38;;;;;;;225.53;42.23;;;0.40;99.90;;;;;;5098892;28;20196;-74
2022/01/15 08:01:05;;;;;;;83.70;31.47;;;0.40;99.90;;;;;;5100446;28;20196;-73
2022/01/15 08:03:33;;;;;;;76.43;28.40;;;0.50;99.90;;;;;;5099996;28;20255;-73
2022/01/15 08:06:00;;;;;;;86.90;29.40;;;0.40;99.90;;;;;;5100799;28;20196;-74
2022/01/15 08:08:27;;;;;;;81.87;29.47;;;0.50;99.90;;;;;;5099999;28;20207;-74
2022/01/15 08:10:53;;;;;;;80.03;28.70;;;0.50;99.90;;;;;;5098885;28;20224;-73
2022/01/15 08:13:20;;;;;;;81.10;28.83;;;0.60;99.90;;;;;;5101083;28;20207;-74
2022/01/15 08:15:47;;;;;;;67.70;26.70;;;0.60;99.90;;;;;;5101825;28;20192;-73
2022/01/15 08:18:13;;;;;;;73.50;28.87;;;0.60;99.90;;;;;;5101778;28;20218;-73
2022/01/15 08:20:41;;;;;;;77.47;26.97;;;0.60;99.90;;;;;;5102846;28;20250;-73
2022/01/15 08:23:08;;;;;;;66.80;26.47;;;0.70;99.90;;;;;;5102190;28;20228;-73
2022/01/15 08:25:35;;;;;;;64.63;25.43;;;0.70;99.90;;;;;;5101000;28;20234;-73
2022/01/15 08:28:01;;;;;;;62.07;24.53;;;0.80;99.90;;;;;;5099898;28;20192;-73
2022/01/15 08:30:28;;;;;;;72.80;27.27;;;0.80;99.90;;;;;;5099914;28;20200;-74
2022/01/15 08:32:55;;;;;;;70.00;27.33;;;0.80;99.90;;;;;;5098714;28;20204;-72
2022/01/15 08:35:21;;;;;;;71.97;27.23;;;0.90;99.90;;;;;;5095953;28;20192;-72
2022/01/15 08:37:49;;;;;;;74.83;29.73;;;0.90;99.90;;;;;;5095633;28;20192;-73
2022/01/15 08:40:19;;;;;;;60.43;26.70;;;1.00;99.90;;;;;;5097638;28;20196;-73
2022/01/15 08:42:46;;;;;;;56.67;24.83;;;1.00;99.90;;;;;;5096850;28;20228;-72
2022/01/15 08:45:14;;;;;;;65.63;25.50;;;1.00;99.90;;;;;;5096381;28;20196;-73
2022/01/15 08:47:41;;;;;;;57.23;24.20;;;1.10;99.90;;;;;;5095789;28;20676;-73
2022/01/15 08:50:10;;;;;;;61.90;24.10;;;1.10;99.90;;;;;;5095886;28;20258;-73
2022/01/15 08:52:37;;;;;;;48.60;22.83;;;1.20;99.90;;;;;;5095465;28;20273;-73
2022/01/15 08:55:07;;;;;;;51.13;23.43;;;1.20;99.90;;;;;;5095792;28;20204;-74
2022/01/15 08:57:34;;;;;;;48.73;22.77;;;1.40;99.90;;;;;;5095769;28;20753;-74
2022/01/15 09:00:01;;;;;;;54.77;23.50;;;1.40;99.90;;;;;;5095490;28;20575;-73
2022/01/15 09:02:28;;;;;;;53.50;24.37;;;1.50;99.90;;;;;;5095341;28;20196;-76
2022/01/15 09:04:55;;;;;;;50.27;22.80;;;1.50;99.90;;;;;;5095800;28;20249;-73
2022/01/15 09:07:21;;;;;;;43.83;21.63;;;1.60;99.90;;;;;;5095180;28;20201;-73
2022/01/15 09:09:48;;;;;;;38.73;20.20;;;1.60;99.90;;;;;;5095024;28;20224;-72
2022/01/15 09:12:17;;;;;;;39.03;20.60;;;1.70;99.90;;;;;;5095571;28;20658;-72
2022/01/15 09:14:44;;;;;;;43.43;21.17;;;1.80;99.90;;;;;;5099464;28;20200;-72
2022/01/15 09:17:10;;;;;;;38.57;19.90;;;1.90;99.90;;;;;;5103079;28;20197;-72
2022/01/15 09:19:37;;;;;;;45.23;21.40;;;2.00;99.90;;;;;;5103241;28;20257;-73
2022/01/15 09:22:06;;;;;;;41.70;20.90;;;2.00;99.90;;;;;;5102875;28;20606;-71
2022/01/15 09:24:32;;;;;;;44.07;20.00;;;2.10;99.90;;;;;;5102756;28;20228;-74
2022/01/15 09:30:12;;;;;;;36.77;19.13;;;2.10;99.90;;;;;;5105411;28;20218;-74
2022/01/15 09:32:34;;;;;;;36.77;18.77;;;2.20;99.90;;;;;;5094536;28;20278;-73
2022/01/15 09:35:01;;;;;;;34.60;18.10;;;2.20;99.90;;;;;;5095503;28;20588;-72
2022/01/15 09:37:28;;;;;;;38.80;19.13;;;2.20;99.90;;;;;;5094973;28;20192;-72
2022/01/15 09:39:57;;;;;;;37.03;19.17;;;2.30;99.90;;;;;;5094168;28;20204;-73
2022/01/15 09:42:24;;;;;;;35.80;18.60;;;2.30;99.90;;;;;;5094284;28;20667;-73
2022/01/15 09:44:53;;;;;;;38.73;17.63;;;2.30;99.90;;;;;;5094783;28;20224;-73
2022/01/15 09:47:21;;;;;;;32.23;16.17;;;2.40;99.90;;;;;;5094592;28;20199;-73
2022/01/15 09:49:49;;;;;;;29.57;15.43;;;2.50;99.90;;;;;;5095081;28;20591;-72
2022/01/15 09:52:16;;;;;;;32.23;16.60;;;2.60;99.90;;;;;;5094608;28;20192;-73
2022/01/15 09:54:43;;;;;;;31.67;16.47;;;2.60;99.90;;;;;;5094075;28;20198;-73
2022/01/15 09:57:10;;;;;;;30.33;16.17;;;2.70;99.90;;;;;;5094337;28;20197;-73
2022/01/15 09:59:37;;;;;;;27.07;15.10;;;2.80;99.90;;;;;;5094222;28;20727;-73
2022/01/15 10:02:06;;;;;;;30.80;15.77;;;2.90;99.90;;;;;;5093877;28;20204;-72
2022/01/15 10:04:35;;;;;;;29.53;15.40;;;2.90;99.90;;;;;;5094175;28;20239;-74
2022/01/15 10:07:14;;;;;;;30.07;15.73;;;2.90;99.90;;;;;;5094094;28;20686;-72
2022/01/15 10:09:42;;;;;;;31.20;15.87;;;2.90;99.90;;;;;;5094069;28;20229;-72
2022/01/15 10:12:10;;;;;;;28.23;15.40;;;2.90;99.90;;;;;;5093924;28;20199;-72
2022/01/15 10:14:39;;;;;;;30.37;16.83;;;3.00;99.90;;;;;;5094084;28;20206;-73
2022/01/15 10:17:22;;;;;;;31.53;16.67;;;3.00;99.90;;;;;;5094002;28;20289;-73
2022/01/15 10:19:49;;;;;;;33.47;16.60;;;3.00;99.90;;;;;;5094421;28;20532;-73
2022/01/15 10:22:18;;;;;;;28.20;15.27;;;3.00;99.90;;;;;;5094139;28;20625;-73
2022/01/15 10:24:52;;;;;;;30.07;15.50;;;3.10;99.90;;;;;;5097251;28;20223;-72
2022/01/15 10:27:21;;;;;;;31.03;16.20;;;3.10;99.90;;;;;;5096161;28;20202;-74
2022/01/15 10:29:57;;;;;;;28.90;15.37;;;3.10;99.90;;;;;;5095211;28;20221;-73
2022/01/15 10:32:26;;;;;;;29.40;15.47;;;3.00;99.90;;;;;;5093972;28;21143;-72
2022/01/15 10:34:53;;;;;;;29.57;14.80;;;3.10;99.90;;;;;;5093654;28;20200;-72
2022/01/15 10:37:24;;;;;;;30.27;15.90;;;3.10;99.90;;;;;;5093580;28;20196;-75
2022/01/15 10:40:03;;;;;;;29.10;16.30;;;3.10;99.90;;;;;;5097073;28;20715;-75
2022/01/15 10:42:30;;;;;;;32.10;17.27;;;3.20;99.90;;;;;;5094127;28;20200;-72
2022/01/15 10:44:59;;;;;;;31.10;17.33;;;3.20;99.90;;;;;;5094660;28;20226;-74
2022/01/15 10:47:29;;;;;;;27.63;15.23;;;3.20;99.90;;;;;;5095241;28;20199;-73
2022/01/15 10:50:01;;;;;;;24.53;14.40;;;3.20;99.90;;;;;;5095938;28;20614;-72
2022/01/15 10:52:29;;;;;;;23.20;13.40;;;3.20;99.90;;;;;;5093158;28;20255;-72
2022/01/15 10:55:01;;;;;;;23.10;12.30;;;3.20;99.90;;;;;;5093708;28;20207;-72
2022/01/15 10:57:30;;;;;;;24.77;14.07;;;3.20;99.90;;;;;;5093941;28;20302;-72
2022/01/15 11:00:16;;;;;;;24.57;14.20;;;3.30;99.90;;;;;;5094439;28;20226;-73
2022/01/15 11:02:46;;;;;;;22.47;12.77;;;3.20;99.90;;;;;;5093378;28;20198;-73
2022/01/15 11:05:25;;;;;;;25.00;12.90;;;3.20;99.90;;;;;;5094070;28;20270;-73
2022/01/15 11:07:52;;;;;;;21.27;12.53;;;3.20;99.90;;;;;;5093500;28;20195;-72
2022/01/15 11:10:20;;;;;;;23.97;12.97;;;3.10;99.90;;;;;;5093962;28;20231;-73
2022/01/15 11:12:47;;;;;;;25.47;13.57;;;3.10;99.90;;;;;;5093343;28;20293;-72
2022/01/15 11:15:13;;;;;;;23.77;13.23;;;3.10;99.90;;;;;;5093466;28;20199;-72
2022/01/15 11:17:41;;;;;;;25.73;13.20;;;3.00;99.90;;;;;;5093098;28;20594;-73
2022/01/15 11:20:13;;;;;;;22.07;13.07;;;3.00;99.90;;;;;;5093051;28;20219;-73
2022/01/15 11:22:42;;;;;;;27.70;15.13;;;3.00;99.90;;;;;;5093608;28;20246;-72
2022/01/15 11:25:12;;;;;;;24.53;13.50;;;3.00;99.90;;;;;;5094222;28;20253;-72
2022/01/15 11:27:40;;;;;;;25.83;13.97;;;3.00;99.90;;;;;;5093961;28;20202;-72
2022/01/15 11:30:07;;;;;;;25.67;14.00;;;3.00;99.90;;;;;;5093293;28;20196;-72
2022/01/15 11:32:35;;;;;;;24.53;13.37;;;3.00;99.90;;;;;;5096746;28;20650;-73
2022/01/15 11:35:03;;;;;;;21.30;12.80;;;3.10;99.90;;;;;;5096679;28;20199;-72
2022/01/15 11:37:40;;;;;;;23.80;13.70;;;3.10;99.90;;;;;;5096987;28;20207;-72
2022/01/15 11:40:36;;;;;;;25.33;14.20;;;3.10;99.90;;;;;;5096991;28;20196;-72
2022/01/15 11:43:40;;;;;;;22.43;13.57;;;3.10;99.90;;;;;;5096680;28;20249;-72
2022/01/15 11:46:23;;;;;;;22.40;13.80;;;3.20;99.90;;;;;;5014387;28;20198;-73
2022/01/15 11:48:50;;;;;;;20.90;12.60;;;3.30;99.90;;;;;;5014527;28;20205;-73
2022/01/15 11:51:26;;;;;;;21.00;12.47;;;3.30;99.90;;;;;;5062028;28;20204;-72
2022/01/15 11:53:57;;;;;;;23.10;13.23;;;3.40;99.90;;;;;;5096597;28;20777;-72
2022/01/15 11:56:26;;;;;;;22.17;12.83;;;3.40;99.90;;;;;;5096672;28;20197;-72
2022/01/15 11:58:56;;;;;;;23.10;13.43;;;3.40;99.90;;;;;;5096444;28;20199;-72
2022/01/15 12:01:43;;;;;;;20.63;12.20;;;3.40;99.90;;;;;;5078629;28;20250;-72
2022/01/15 12:04:27;;;;;;;16.53;10.30;;;3.50;99.90;;;;;;5096276;28;20778;-72
2022/01/15 12:07:22;;;;;;;18.27;11.07;;;3.50;99.90;;;;;;5096732;28;20247;-73
2022/01/15 12:09:51;;;;;;;21.43;12.03;;;3.40;99.90;;;;;;5096138;28;20231;-73
2022/01/15 12:12:43;;;;;;;21.63;12.47;;;3.50;99.90;;;;;;5096611;28;20200;-73
2022/01/15 12:15:11;;;;;;;14.90;9.67;;;3.40;99.90;;;;;;5096459;28;20555;-73
2022/01/15 12:17:40;;;;;;;15.20;8.53;;;3.40;99.90;;;;;;5096629;28;20210;-73
2022/01/15 12:20:21;;;;;;;9.87;7.60;;;3.30;99.90;;;;;;5097271;28;20202;-73
2022/01/15 12:22:49;;;;;;;14.00;9.80;;;3.30;99.90;;;;;;5099031;28;20202;-73
2022/01/15 12:25:31;;;;;;;16.83;10.33;;;3.30;99.90;;;;;;5096474;28;20235;-73
2022/01/15 12:27:59;;;;;;;16.27;11.07;;;3.30;99.90;;;;;;5096683;28;20208;-73
2022/01/15 12:30:28;;;;;;;19.17;11.50;;;3.30;99.90;;;;;;5097301;28;20206;-74
2022/01/15 12:32:56;;;;;;;11.63;8.40;;;3.20;99.90;;;;;;5100989;28;20205;-73
2022/01/15 12:35:25;;;;;;;15.80;10.23;;;3.10;99.90;;;;;;5101210;28;20256;-72
2022/01/15 12:37:53;;;;;;;14.67;10.60;;;3.10;99.90;;;;;;5101593;28;20246;-72
2022/01/15 12:40:22;;;;;;;12.97;8.63;;;3.10;99.90;;;;;;5101981;28;20198;-72
2022/01/15 12:42:55;;;;;;;12.00;7.80;;;3.10;99.90;;;;;;5099903;28;20200;-72
2022/01/15 12:45:24;;;;;;;11.87;8.53;;;3.10;99.90;;;;;;5103207;28;20253;-74
2022/01/15 12:47:50;;;;;;;16.17;10.40;;;3.00;99.90;;;;;;5101892;28;20202;-74
2022/01/15 12:50:17;;;;;;;16.33;11.00;;;3.00;99.90;;;;;;5099208;28;20200;-74